sensor_id;sensor_type;location;lat;lon;timestamp;pressure;altitude;pressure_sealevel;temperature;humidity
67738;BME280;54534;43.612;1.572;2023-04-22T00:00:26;98032.22;;;19.65;49.38
67738;BME280;54534;43.612;1.572;2023-04-22T00:02:53;98026.03;;;19.65;49.33
67738;BME280;54534;43.612;1.572;2023-04-22T00:05:20;98021.53;;;19.65;49.42
67738;BME280;54534;43.612;1.572;2023-04-22T00:07:45;98030.53;;;19.64;49.62
67738;BME280;54534;43.612;1.572;2023-04-22T00:10:11;98024.38;;;19.64;49.66
67738;BME280;54534;43.612;1.572;2023-04-22T00:12:37;98030.53;;;19.64;49.58
67738;BME280;54534;43.612;1.572;2023-04-22T00:15:02;98034.22;;;19.63;49.50
67738;BME280;54534;43.612;1.572;2023-04-22T00:17:28;98032.38;;;19.64;49.94
67738;BME280;54534;43.612;1.572;2023-04-22T00:19:54;98027.19;;;19.62;49.31
67738;BME280;54534;43.612;1.572;2023-04-22T00:22:20;98033.38;;;19.63;49.44
67738;BME280;54534;43.612;1.572;2023-04-22T00:24:45;98028.03;;;19.63;49.45
67738;BME280;54534;43.612;1.572;2023-04-22T00:27:11;98025.53;;;19.61;49.45
67738;BME280;54534;43.612;1.572;2023-04-22T00:29:36;98013.84;;;19.62;49.18
67738;BME280;54534;43.612;1.572;2023-04-22T00:32:02;98001.53;;;19.61;49.38
67738;BME280;54534;43.612;1.572;2023-04-22T00:34:27;97986.53;;;19.60;49.42
67738;BME280;54534;43.612;1.572;2023-04-22T00:36:53;97981.03;;;19.62;49.23
67738;BME280;54534;43.612;1.572;2023-04-22T00:39:18;97972.34;;;19.60;49.42
67738;BME280;54534;43.612;1.572;2023-04-22T00:41:45;97989.19;;;19.60;49.31
67738;BME280;54534;43.612;1.572;2023-04-22T00:44:10;97975.88;;;19.60;49.42
67738;BME280;54534;43.612;1.572;2023-04-22T00:46:37;97999.00;;;19.60;49.37
67738;BME280;54534;43.612;1.572;2023-04-22T00:49:03;98005.38;;;19.59;49.16
67738;BME280;54534;43.612;1.572;2023-04-22T00:51:29;97984.03;;;19.59;49.18
67738;BME280;54534;43.612;1.572;2023-04-22T00:53:55;97982.19;;;19.59;48.93
67738;BME280;54534;43.612;1.572;2023-04-22T00:56:21;97989.19;;;19.60;49.21
67738;BME280;54534;43.612;1.572;2023-04-22T00:58:49;97971.50;;;19.59;49.21
67738;BME280;54534;43.612;1.572;2023-04-22T01:01:15;97982.34;;;19.58;49.24
67738;BME280;54534;43.612;1.572;2023-04-22T01:03:41;97978.84;;;19.57;48.93
67738;BME280;54534;43.612;1.572;2023-04-22T01:06:07;97978.69;;;19.59;48.95
67738;BME280;54534;43.612;1.572;2023-04-22T01:08:32;97985.00;;;19.58;49.02
67738;BME280;54534;43.612;1.572;2023-04-22T01:10:58;97970.84;;;19.57;49.17
67738;BME280;54534;43.612;1.572;2023-04-22T01:13:24;97965.50;;;19.57;48.70
67738;BME280;54534;43.612;1.572;2023-04-22T01:15:51;97977.19;;;19.56;48.92
67738;BME280;54534;43.612;1.572;2023-04-22T01:18:17;97977.19;;;19.56;48.89
67738;BME280;54534;43.612;1.572;2023-04-22T01:20:43;97973.69;;;19.55;49.20
67738;BME280;54534;43.612;1.572;2023-04-22T01:23:36;97967.34;;;19.56;48.88
67738;BME280;54534;43.612;1.572;2023-04-22T01:26:02;97967.50;;;19.55;48.91
67738;BME280;54534;43.612;1.572;2023-04-22T01:28:27;97972.00;;;19.54;49.00
67738;BME280;54534;43.612;1.572;2023-04-22T01:30:54;97984.34;;;19.55;48.96
67738;BME280;54534;43.612;1.572;2023-04-22T01:33:20;97965.81;;;19.54;48.81
67738;BME280;54534;43.612;1.572;2023-04-22T01:35:46;97976.50;;;19.54;48.92
67738;BME280;54534;43.612;1.572;2023-04-22T01:38:12;97981.81;;;19.54;48.81
67738;BME280;54534;43.612;1.572;2023-04-22T01:40:38;97989.81;;;19.54;49.03
67738;BME280;54534;43.612;1.572;2023-04-22T01:43:04;97994.16;;;19.55;48.65
67738;BME280;54534;43.612;1.572;2023-04-22T01:45:29;97999.50;;;19.55;48.76
67738;BME280;54534;43.612;1.572;2023-04-22T01:47:55;98008.47;;;19.54;48.88
67738;BME280;54534;43.612;1.572;2023-04-22T01:50:21;98010.34;;;19.53;48.81
67738;BME280;54534;43.612;1.572;2023-04-22T01:52:47;98017.50;;;19.53;48.89
67738;BME280;54534;43.612;1.572;2023-04-22T01:55:13;98023.66;;;19.53;48.70
67738;BME280;54534;43.612;1.572;2023-04-22T01:57:39;98042.34;;;19.53;48.96
67738;BME280;54534;43.612;1.572;2023-04-22T02:00:05;98034.34;;;19.53;48.66
67738;BME280;54534;43.612;1.572;2023-04-22T02:02:32;98038.81;;;19.53;48.75
67738;BME280;54534;43.612;1.572;2023-04-22T02:04:57;98044.16;;;19.53;48.97
67738;BME280;54534;43.612;1.572;2023-04-22T02:07:23;98042.47;;;19.52;48.65
67738;BME280;54534;43.612;1.572;2023-04-22T02:09:49;98052.16;;;19.53;48.70
67738;BME280;54534;43.612;1.572;2023-04-22T02:12:14;98063.81;;;19.52;48.61
67738;BME280;54534;43.612;1.572;2023-04-22T02:14:40;98072.63;;;19.52;48.81
67738;BME280;54534;43.612;1.572;2023-04-22T02:17:05;98076.28;;;19.51;48.68
67738;BME280;54534;43.612;1.572;2023-04-22T02:19:31;98091.31;;;19.52;48.89
67738;BME280;54534;43.612;1.572;2023-04-22T02:21:56;98093.97;;;19.52;48.57
67738;BME280;54534;43.612;1.572;2023-04-22T02:24:22;98094.09;;;19.51;48.82
67738;BME280;54534;43.612;1.572;2023-04-22T02:26:47;98094.94;;;19.51;48.75
67738;BME280;54534;43.612;1.572;2023-04-22T02:29:13;98105.63;;;19.51;48.75
67738;BME280;54534;43.612;1.572;2023-04-22T02:31:39;98099.44;;;19.51;48.62
67738;BME280;54534;43.612;1.572;2023-04-22T02:34:04;98103.97;;;19.50;48.72
67738;BME280;54534;43.612;1.572;2023-04-22T02:36:29;98107.44;;;19.51;48.61
67738;BME280;54534;43.612;1.572;2023-04-22T02:38:56;98112.94;;;19.49;48.41
67738;BME280;54534;43.612;1.572;2023-04-22T02:41:22;98110.09;;;19.51;48.68
67738;BME280;54534;43.612;1.572;2023-04-22T02:43:48;98110.09;;;19.51;48.90
67738;BME280;54534;43.612;1.572;2023-04-22T02:46:14;98104.94;;;19.49;48.70
67738;BME280;54534;43.612;1.572;2023-04-22T02:48:43;98122.75;;;19.49;48.87
67738;BME280;54534;43.612;1.572;2023-04-22T02:51:08;98130.75;;;19.49;48.57
67738;BME280;54534;43.612;1.572;2023-04-22T02:53:34;98121.78;;;19.50;48.50
67738;BME280;54534;43.612;1.572;2023-04-22T02:55:59;98127.09;;;19.50;48.71
67738;BME280;54534;43.612;1.572;2023-04-22T02:58:25;98126.25;;;19.49;48.55
67738;BME280;54534;43.612;1.572;2023-04-22T03:00:51;98132.44;;;19.50;48.56
67738;BME280;54534;43.612;1.572;2023-04-22T03:03:17;98128.09;;;19.49;48.56
67738;BME280;54534;43.612;1.572;2023-04-22T03:05:42;98129.09;;;19.48;48.52
67738;BME280;54534;43.612;1.572;2023-04-22T03:08:07;98116.59;;;19.48;48.75
67738;BME280;54534;43.612;1.572;2023-04-22T03:10:33;98105.09;;;19.48;48.67
67738;BME280;54534;43.612;1.572;2023-04-22T03:12:58;98112.09;;;19.49;48.56
67738;BME280;54534;43.612;1.572;2023-04-22T03:15:24;98123.78;;;19.48;48.37
67738;BME280;54534;43.612;1.572;2023-04-22T03:17:49;98118.56;;;19.46;48.40
67738;BME280;54534;43.612;1.572;2023-04-22T03:20:15;98126.44;;;19.48;48.70
67738;BME280;54534;43.612;1.572;2023-04-22T03:22:40;98126.44;;;19.48;48.53
67738;BME280;54534;43.612;1.572;2023-04-22T03:25:06;98134.44;;;19.48;48.51
67738;BME280;54534;43.612;1.572;2023-04-22T03:27:32;98138.91;;;19.47;48.22
67738;BME280;54534;43.612;1.572;2023-04-22T03:29:57;98141.59;;;19.47;48.65
67738;BME280;54534;43.612;1.572;2023-04-22T03:32:23;98145.22;;;19.46;48.60
67738;BME280;54534;43.612;1.572;2023-04-22T03:34:48;98153.09;;;19.48;48.60
67738;BME280;54534;43.612;1.572;2023-04-22T03:37:13;98157.59;;;19.47;48.35
67738;BME280;54534;43.612;1.572;2023-04-22T03:39:39;98161.09;;;19.48;48.61
67738;BME280;54534;43.612;1.572;2023-04-22T03:42:04;98148.75;;;19.47;48.54
67738;BME280;54534;43.612;1.572;2023-04-22T03:44:30;98133.59;;;19.47;48.41
67738;BME280;54534;43.612;1.572;2023-04-22T03:46:55;98150.56;;;19.46;48.46
67738;BME280;54534;43.612;1.572;2023-04-22T03:49:20;98139.06;;;19.45;48.28
67738;BME280;54534;43.612;1.572;2023-04-22T03:51:46;98137.22;;;19.46;48.40
67738;BME280;54534;43.612;1.572;2023-04-22T03:54:11;98139.06;;;19.45;48.47
67738;BME280;54534;43.612;1.572;2023-04-22T03:56:37;98142.75;;;19.44;48.52
67738;BME280;54534;43.612;1.572;2023-04-22T03:59:02;98151.56;;;19.45;48.43
67738;BME280;54534;43.612;1.572;2023-04-22T04:01:27;98149.72;;;19.45;48.30
67738;BME280;54534;43.612;1.572;2023-04-22T04:03:53;98148.91;;;19.45;48.58
67738;BME280;54534;43.612;1.572;2023-04-22T04:06:18;98164.06;;;19.44;48.37
67738;BME280;54534;43.612;1.572;2023-04-22T04:08:44;98178.38;;;19.43;48.38
67738;BME280;54534;43.612;1.572;2023-04-22T04:11:10;98171.03;;;19.45;48.50
67738;BME280;54534;43.612;1.572;2023-04-22T04:13:35;98168.38;;;19.45;48.32
67738;BME280;54534;43.612;1.572;2023-04-22T04:16:01;98169.41;;;19.44;48.42
67738;BME280;54534;43.612;1.572;2023-04-22T04:18:28;98174.72;;;19.44;48.51
67738;BME280;54534;43.612;1.572;2023-04-22T04:20:54;98169.41;;;19.44;48.31
67738;BME280;54534;43.612;1.572;2023-04-22T04:23:19;98163.22;;;19.44;48.32
67738;BME280;54534;43.612;1.572;2023-04-22T04:25:45;98166.72;;;19.44;48.19
67738;BME280;54534;43.612;1.572;2023-04-22T04:28:10;98170.38;;;19.43;48.56
67738;BME280;54534;43.612;1.572;2023-04-22T04:30:36;98178.38;;;19.43;48.25
67738;BME280;54534;43.612;1.572;2023-04-22T04:33:02;98175.69;;;19.43;48.58
67738;BME280;54534;43.612;1.572;2023-04-22T04:35:34;98174.88;;;19.43;48.24
67738;BME280;54534;43.612;1.572;2023-04-22T04:38:00;98178.38;;;19.43;48.24
67738;BME280;54534;43.612;1.572;2023-04-22T04:40:26;98196.19;;;19.43;48.36
67738;BME280;54534;43.612;1.572;2023-04-22T04:42:54;98189.88;;;19.44;48.24
67738;BME280;54534;43.612;1.572;2023-04-22T04:45:20;98199.69;;;19.43;48.66
67738;BME280;54534;43.612;1.572;2023-04-22T04:47:46;98204.34;;;19.41;48.29
67738;BME280;54534;43.612;1.572;2023-04-22T04:50:15;98219.38;;;19.42;48.52
67738;BME280;54534;43.612;1.572;2023-04-22T04:52:40;98220.19;;;19.43;48.29
67738;BME280;54534;43.612;1.572;2023-04-22T04:55:06;98213.03;;;19.43;48.28
67738;BME280;54534;43.612;1.572;2023-04-22T04:57:31;98226.34;;;19.43;48.24
67738;BME280;54534;43.612;1.572;2023-04-22T04:59:57;98230.03;;;19.42;48.31
67738;BME280;54534;43.612;1.572;2023-04-22T05:02:22;98236.16;;;19.43;48.52
67738;BME280;54534;43.612;1.572;2023-04-22T05:04:48;98225.50;;;19.43;48.31
67738;BME280;54534;43.612;1.572;2023-04-22T05:07:13;98230.03;;;19.42;48.18
67738;BME280;54534;43.612;1.572;2023-04-22T05:09:38;98247.00;;;19.41;48.41
67738;BME280;54534;43.612;1.572;2023-04-22T05:12:04;98263.00;;;19.41;48.50
67738;BME280;54534;43.612;1.572;2023-04-22T05:14:29;98271.84;;;19.42;48.44
67738;BME280;54534;43.612;1.572;2023-04-22T05:16:55;98273.66;;;19.41;48.24
67738;BME280;54534;43.612;1.572;2023-04-22T05:19:20;98276.31;;;19.41;48.40
67738;BME280;54534;43.612;1.572;2023-04-22T05:21:45;98279.97;;;19.40;48.27
67738;BME280;54534;43.612;1.572;2023-04-22T05:24:11;98297.66;;;19.41;48.35
67738;BME280;54534;43.612;1.572;2023-04-22T05:26:36;98295.97;;;19.40;48.22
67738;BME280;54534;43.612;1.572;2023-04-22T05:29:02;98302.13;;;19.41;48.13
67738;BME280;54534;43.612;1.572;2023-04-22T05:31:27;98304.97;;;19.39;47.96
67738;BME280;54534;43.612;1.572;2023-04-22T05:33:53;98323.47;;;19.41;48.21
67738;BME280;54534;43.612;1.572;2023-04-22T05:36:18;98320.97;;;19.39;48.34
67738;BME280;54534;43.612;1.572;2023-04-22T05:38:44;98327.94;;;19.40;48.20
67738;BME280;54534;43.612;1.572;2023-04-22T05:41:09;98334.28;;;19.39;48.47
67738;BME280;54534;43.612;1.572;2023-04-22T05:43:34;98334.28;;;19.39;48.37
67738;BME280;54534;43.612;1.572;2023-04-22T05:46:00;98330.59;;;19.40;48.35
67738;BME280;54534;43.612;1.572;2023-04-22T05:48:25;98352.78;;;19.41;48.40
67738;BME280;54534;43.612;1.572;2023-04-22T05:50:51;98367.94;;;19.40;48.34
67738;BME280;54534;43.612;1.572;2023-04-22T05:53:16;98366.28;;;19.39;48.27
67738;BME280;54534;43.612;1.572;2023-04-22T05:55:42;98373.25;;;19.40;48.38
67738;BME280;54534;43.612;1.572;2023-04-22T05:58:08;98384.78;;;19.41;48.35
67738;BME280;54534;43.612;1.572;2023-04-22T06:00:33;98391.91;;;19.40;48.29
67738;BME280;54534;43.612;1.572;2023-04-22T06:02:59;98403.44;;;19.41;48.41
67738;BME280;54534;43.612;1.572;2023-04-22T06:05:24;98405.25;;;19.40;48.47
67738;BME280;54534;43.612;1.572;2023-04-22T06:07:50;98412.44;;;19.40;48.50
67738;BME280;54534;43.612;1.572;2023-04-22T06:10:15;98420.44;;;19.40;48.57
67738;BME280;54534;43.612;1.572;2023-04-22T06:12:40;98426.56;;;19.40;48.51
67738;BME280;54534;43.612;1.572;2023-04-22T06:15:06;98427.59;;;19.39;48.40
67738;BME280;54534;43.612;1.572;2023-04-22T06:17:32;98440.75;;;19.41;48.49
67738;BME280;54534;43.612;1.572;2023-04-22T06:19:57;98441.59;;;19.41;48.60
67738;BME280;54534;43.612;1.572;2023-04-22T06:22:22;98443.28;;;19.42;48.52
67738;BME280;54534;43.612;1.572;2023-04-22T06:24:48;98442.44;;;19.42;48.66
67738;BME280;54534;43.612;1.572;2023-04-22T06:27:13;98459.28;;;19.42;48.78
67738;BME280;54534;43.612;1.572;2023-04-22T06:29:39;98463.75;;;19.42;48.94
67738;BME280;54534;43.612;1.572;2023-04-22T06:32:05;98467.28;;;19.42;48.89
67738;BME280;54534;43.612;1.572;2023-04-22T06:34:30;98467.28;;;19.42;48.69
67738;BME280;54534;43.612;1.572;2023-04-22T06:36:56;98464.63;;;19.42;48.97
67738;BME280;54534;43.612;1.572;2023-04-22T06:39:21;98479.75;;;19.42;48.84
67738;BME280;54534;43.612;1.572;2023-04-22T06:41:47;98481.44;;;19.43;48.82
67738;BME280;54534;43.612;1.572;2023-04-22T06:44:13;98472.63;;;19.42;48.88
67738;BME280;54534;43.612;1.572;2023-04-22T06:46:38;98476.25;;;19.41;49.01
67738;BME280;54534;43.612;1.572;2023-04-22T06:49:04;98482.28;;;19.43;48.98
67738;BME280;54534;43.612;1.572;2023-04-22T06:51:29;98486.75;;;19.43;49.21
67738;BME280;54534;43.612;1.572;2023-04-22T06:53:56;98499.28;;;19.42;49.00
67738;BME280;54534;43.612;1.572;2023-04-22T06:56:23;98516.78;;;19.45;48.91
67738;BME280;54534;43.612;1.572;2023-04-22T06:58:48;98523.94;;;19.44;48.99
67738;BME280;54534;43.612;1.572;2023-04-22T07:01:13;98517.78;;;19.44;48.90
67738;BME280;54534;43.612;1.572;2023-04-22T07:03:39;98518.75;;;19.43;48.79
67738;BME280;54534;43.612;1.572;2023-04-22T07:06:04;98513.28;;;19.44;48.84
67738;BME280;54534;43.612;1.572;2023-04-22T07:08:30;98515.09;;;19.44;48.97
67738;BME280;54534;43.612;1.572;2023-04-22T07:10:56;98517.78;;;19.44;49.11
67738;BME280;54534;43.612;1.572;2023-04-22T07:13:22;98518.63;;;19.44;49.11
67738;BME280;54534;43.612;1.572;2023-04-22T07:15:47;98529.28;;;19.44;48.79
67738;BME280;54534;43.612;1.572;2023-04-22T07:18:12;98536.44;;;19.44;49.07
67738;BME280;54534;43.612;1.572;2023-04-22T07:20:38;98535.59;;;19.43;48.89
67738;BME280;54534;43.612;1.572;2023-04-22T07:23:03;98533.75;;;19.44;49.36
67738;BME280;54534;43.612;1.572;2023-04-22T07:25:29;98544.28;;;19.45;49.00
67738;BME280;54534;43.612;1.572;2023-04-22T07:27:54;98547.78;;;19.46;48.74
67738;BME280;54534;43.612;1.572;2023-04-22T07:30:20;98539.78;;;19.46;49.27
67738;BME280;54534;43.612;1.572;2023-04-22T07:32:45;98540.63;;;19.47;49.22
67738;BME280;54534;43.612;1.572;2023-04-22T07:35:10;98534.47;;;19.46;49.09
67738;BME280;54534;43.612;1.572;2023-04-22T07:37:36;98524.63;;;19.47;49.03
67738;BME280;54534;43.612;1.572;2023-04-22T07:40:01;98523.78;;;19.46;49.01
67738;BME280;54534;43.612;1.572;2023-04-22T07:42:27;98532.63;;;19.47;49.03
67738;BME280;54534;43.612;1.572;2023-04-22T07:44:52;98529.13;;;19.46;48.98
67738;BME280;54534;43.612;1.572;2023-04-22T07:47:18;98534.47;;;19.46;49.08
67738;BME280;54534;43.612;1.572;2023-04-22T07:49:43;98522.94;;;19.45;48.94
67738;BME280;54534;43.612;1.572;2023-04-22T07:52:09;98530.94;;;19.45;48.90
67738;BME280;54534;43.612;1.572;2023-04-22T07:54:35;98524.91;;;19.43;49.05
67738;BME280;54534;43.612;1.572;2023-04-22T07:57:00;98526.63;;;19.44;48.88
67738;BME280;54534;43.612;1.572;2023-04-22T07:59:26;98535.47;;;19.45;49.08
67738;BME280;54534;43.612;1.572;2023-04-22T08:01:51;98530.13;;;19.45;49.05
67738;BME280;54534;43.612;1.572;2023-04-22T08:04:16;98547.09;;;19.44;49.03
67738;BME280;54534;43.612;1.572;2023-04-22T08:06:42;98540.06;;;19.43;48.85
67738;BME280;54534;43.612;1.572;2023-04-22T08:09:07;98541.75;;;19.44;48.81
67738;BME280;54534;43.612;1.572;2023-04-22T08:11:34;98545.28;;;19.44;48.80
67738;BME280;54534;43.612;1.572;2023-04-22T08:14:00;98547.94;;;19.44;48.88
67738;BME280;54534;43.612;1.572;2023-04-22T08:16:25;98539.94;;;19.44;49.29
67738;BME280;54534;43.612;1.572;2023-04-22T08:18:50;98550.59;;;19.44;48.86
67738;BME280;54534;43.612;1.572;2023-04-22T08:21:16;98556.06;;;19.43;49.08
67738;BME280;54534;43.612;1.572;2023-04-22T08:23:41;98562.25;;;19.43;48.89
67738;BME280;54534;43.612;1.572;2023-04-22T08:26:07;98567.56;;;19.43;48.98
67738;BME280;54534;43.612;1.572;2023-04-22T08:28:33;98563.25;;;19.42;48.78
67738;BME280;54534;43.612;1.572;2023-04-22T08:30:59;98572.91;;;19.43;49.14
67738;BME280;54534;43.612;1.572;2023-04-22T08:33:25;98568.59;;;19.42;48.75
67738;BME280;54534;43.612;1.572;2023-04-22T08:35:50;98572.91;;;19.43;48.93
67738;BME280;54534;43.612;1.572;2023-04-22T08:38:15;98571.25;;;19.42;48.99
67738;BME280;54534;43.612;1.572;2023-04-22T08:40:41;98571.25;;;19.42;48.96
67738;BME280;54534;43.612;1.572;2023-04-22T08:43:07;98571.25;;;19.42;49.13
67738;BME280;54534;43.612;1.572;2023-04-22T08:45:33;98568.59;;;19.42;48.92
67738;BME280;54534;43.612;1.572;2023-04-22T08:47:59;98576.56;;;19.42;49.11
67738;BME280;54534;43.612;1.572;2023-04-22T08:50:25;98582.03;;;19.41;48.80
67738;BME280;54534;43.612;1.572;2023-04-22T08:52:51;98597.91;;;19.42;49.03
67738;BME280;54534;43.612;1.572;2023-04-22T08:55:16;98584.69;;;19.41;48.98
67738;BME280;54534;43.612;1.572;2023-04-22T08:57:43;98574.88;;;19.41;48.91
67738;BME280;54534;43.612;1.572;2023-04-22T09:00:09;98574.03;;;19.41;49.02
67738;BME280;54534;43.612;1.572;2023-04-22T09:02:36;98573.06;;;19.42;49.13
67738;BME280;54534;43.612;1.572;2023-04-22T09:05:02;98573.06;;;19.42;48.93
67738;BME280;54534;43.612;1.572;2023-04-22T09:07:30;98574.88;;;19.41;48.96
67738;BME280;54534;43.612;1.572;2023-04-22T09:09:56;98567.88;;;19.40;49.04
67738;BME280;54534;43.612;1.572;2023-04-22T09:12:23;98564.22;;;19.41;48.98
67738;BME280;54534;43.612;1.572;2023-04-22T09:14:50;98562.53;;;19.40;49.04
67738;BME280;54534;43.612;1.572;2023-04-22T09:17:16;98566.03;;;19.41;49.06
67738;BME280;54534;43.612;1.572;2023-04-22T09:19:43;98564.38;;;19.40;48.98
67738;BME280;54534;43.612;1.572;2023-04-22T09:22:10;98560.88;;;19.39;48.93
67738;BME280;54534;43.612;1.572;2023-04-22T09:24:40;98565.34;;;19.39;48.81
67738;BME280;54534;43.612;1.572;2023-04-22T09:27:05;98564.38;;;19.40;49.23
67738;BME280;54534;43.612;1.572;2023-04-22T09:29:31;98561.72;;;19.40;48.90
67738;BME280;54534;43.612;1.572;2023-04-22T09:31:56;98561.72;;;19.40;48.90
67738;BME280;54534;43.612;1.572;2023-04-22T09:34:21;98565.19;;;19.40;48.90
67738;BME280;54534;43.612;1.572;2023-04-22T09:36:49;98560.72;;;19.41;49.14
67738;BME280;54534;43.612;1.572;2023-04-22T09:39:15;98568.88;;;19.39;48.79
67738;BME280;54534;43.612;1.572;2023-04-22T09:41:41;98567.03;;;19.40;48.85
67738;BME280;54534;43.612;1.572;2023-04-22T09:44:17;98559.88;;;19.40;49.23
67738;BME280;54534;43.612;1.572;2023-04-22T09:46:43;98568.72;;;19.41;49.00
67738;BME280;54534;43.612;1.572;2023-04-22T09:49:09;98566.03;;;19.41;49.04
67738;BME280;54534;43.612;1.572;2023-04-22T09:51:39;98567.88;;;19.40;49.24
67738;BME280;54534;43.612;1.572;2023-04-22T09:54:06;98569.56;;;19.41;49.09
67738;BME280;54534;43.612;1.572;2023-04-22T09:56:50;98574.88;;;19.41;49.12
67738;BME280;54534;43.612;1.572;2023-04-22T09:59:20;98580.22;;;19.41;49.04
67738;BME280;54534;43.612;1.572;2023-04-22T10:01:47;98581.19;;;19.40;49.25
67738;BME280;54534;43.612;1.572;2023-04-22T10:04:13;98582.03;;;19.41;49.06
67738;BME280;54534;43.612;1.572;2023-04-22T10:06:40;98583.84;;;19.40;49.20
67738;BME280;54534;43.612;1.572;2023-04-22T10:09:06;98580.22;;;19.41;49.02
67738;BME280;54534;43.612;1.572;2023-04-22T10:11:32;98582.88;;;19.41;49.12
67738;BME280;54534;43.612;1.572;2023-04-22T10:13:58;98574.88;;;19.41;49.14
67738;BME280;54534;43.612;1.572;2023-04-22T10:16:29;98578.41;;;19.42;49.20
67738;BME280;54534;43.612;1.572;2023-04-22T10:18:57;98580.22;;;19.41;49.23
67738;BME280;54534;43.612;1.572;2023-04-22T10:21:25;98578.41;;;19.42;49.26
67738;BME280;54534;43.612;1.572;2023-04-22T10:23:51;98579.25;;;19.42;49.32
67738;BME280;54534;43.612;1.572;2023-04-22T10:26:39;98581.06;;;19.42;49.17
67738;BME280;54534;43.612;1.572;2023-04-22T10:29:12;98581.91;;;19.42;49.36
67738;BME280;54534;43.612;1.572;2023-04-22T10:31:41;98581.91;;;19.42;49.30
67738;BME280;54534;43.612;1.572;2023-04-22T10:34:13;98593.53;;;19.41;49.25
67738;BME280;54534;43.612;1.572;2023-04-22T10:37:12;98586.41;;;19.42;48.92
67738;BME280;54534;43.612;1.572;2023-04-22T10:39:41;98583.72;;;19.42;49.06
67738;BME280;54534;43.612;1.572;2023-04-22T10:44:59;98589.91;;;19.42;49.29
67738;BME280;54534;43.612;1.572;2023-04-22T10:47:30;98589.91;;;19.42;49.38
67738;BME280;54534;43.612;1.572;2023-04-22T10:50:16;98597.91;;;19.42;49.06
67738;BME280;54534;43.612;1.572;2023-04-22T10:52:46;98601.53;;;19.41;49.01
67738;BME280;54534;43.612;1.572;2023-04-22T10:55:11;98606.03;;;19.41;49.20
67738;BME280;54534;43.612;1.572;2023-04-22T10:57:42;98608.56;;;19.42;49.49
67738;BME280;54534;43.612;1.572;2023-04-22T11:02:44;98608.69;;;19.41;48.96
67738;BME280;54534;43.612;1.572;2023-04-22T11:05:21;98608.56;;;19.42;49.15
67738;BME280;54534;43.612;1.572;2023-04-22T11:07:48;98613.91;;;19.42;49.27
67738;BME280;54534;43.612;1.572;2023-04-22T11:10:30;98615.56;;;19.43;49.20
67738;BME280;54534;43.612;1.572;2023-04-22T11:12:57;98616.56;;;19.42;49.12
67738;BME280;54534;43.612;1.572;2023-04-22T11:15:22;98612.91;;;19.43;49.10
67738;BME280;54534;43.612;1.572;2023-04-22T11:17:53;98619.22;;;19.42;49.25
67738;BME280;54534;43.612;1.572;2023-04-22T11:20:19;98611.09;;;19.44;49.39
67738;BME280;54534;43.612;1.572;2023-04-22T11:22:47;98626.22;;;19.43;49.06
67738;BME280;54534;43.612;1.572;2023-04-22T11:25:13;98620.91;;;19.43;48.97
67738;BME280;54534;43.612;1.572;2023-04-22T11:27:40;98618.22;;;19.43;49.12
67738;BME280;54534;43.612;1.572;2023-04-22T11:30:11;98617.38;;;19.43;49.11
67738;BME280;54534;43.612;1.572;2023-04-22T11:32:38;98620.22;;;19.41;49.04
67738;BME280;54534;43.612;1.572;2023-04-22T11:35:06;98618.38;;;19.42;48.92
67738;BME280;54534;43.612;1.572;2023-04-22T11:40:20;98607.56;;;19.43;49.04
67738;BME280;54534;43.612;1.572;2023-04-22T11:42:47;98608.41;;;19.44;49.11
67738;BME280;54534;43.612;1.572;2023-04-22T11:45:12;98608.41;;;19.44;49.10
67738;BME280;54534;43.612;1.572;2023-04-22T11:47:39;98616.41;;;19.44;49.22
67738;BME280;54534;43.612;1.572;2023-04-22T11:50:09;98608.56;;;19.42;49.28
67738;BME280;54534;43.612;1.572;2023-04-22T11:55:14;98613.75;;;19.44;49.07
67738;BME280;54534;43.612;1.572;2023-04-22T11:57:40;98607.44;;;19.45;49.19
67738;BME280;54534;43.612;1.572;2023-04-22T12:00:12;98606.59;;;19.44;49.11
67738;BME280;54534;43.612;1.572;2023-04-22T12:02:39;98602.22;;;19.43;49.36
67738;BME280;54534;43.612;1.572;2023-04-22T12:05:08;98604.91;;;19.43;49.00
67738;BME280;54534;43.612;1.572;2023-04-22T12:07:34;98596.06;;;19.43;49.39
67738;BME280;54534;43.612;1.572;2023-04-22T12:10:00;98606.59;;;19.44;49.11
67738;BME280;54534;43.612;1.572;2023-04-22T12:12:27;98605.75;;;19.44;49.28
67738;BME280;54534;43.612;1.572;2023-04-22T12:14:53;98598.72;;;19.43;49.08
67738;BME280;54534;43.612;1.572;2023-04-22T12:17:23;98608.25;;;19.45;49.12
67738;BME280;54534;43.612;1.572;2023-04-22T12:19:53;98613.91;;;19.42;49.13
67738;BME280;54534;43.612;1.572;2023-04-22T12:22:26;98621.75;;;19.44;49.02
67738;BME280;54534;43.612;1.572;2023-04-22T12:24:52;98627.06;;;19.44;48.89
67738;BME280;54534;43.612;1.572;2023-04-22T12:27:17;98622.59;;;19.44;48.96
67738;BME280;54534;43.612;1.572;2023-04-22T12:29:55;98627.06;;;19.44;49.05
67738;BME280;54534;43.612;1.572;2023-04-22T12:32:24;98631.56;;;19.43;49.22
67738;BME280;54534;43.612;1.572;2023-04-22T12:34:50;98621.75;;;19.44;49.05
67738;BME280;54534;43.612;1.572;2023-04-22T12:37:15;98618.38;;;19.42;48.93
67738;BME280;54534;43.612;1.572;2023-04-22T12:39:42;98626.22;;;19.43;48.82
67738;BME280;54534;43.612;1.572;2023-04-22T12:42:08;98634.22;;;19.43;48.89
67738;BME280;54534;43.612;1.572;2023-04-22T12:44:34;98632.56;;;19.42;49.19
67738;BME280;54534;43.612;1.572;2023-04-22T12:47:00;98628.91;;;19.43;49.12
67738;BME280;54534;43.612;1.572;2023-04-22T12:49:26;98635.22;;;19.42;49.29
67738;BME280;54534;43.612;1.572;2023-04-22T12:51:51;98630.88;;;19.41;49.15
67738;BME280;54534;43.612;1.572;2023-04-22T12:54:18;98625.53;;;19.41;49.20
67738;BME280;54534;43.612;1.572;2023-04-22T12:56:44;98641.53;;;19.41;49.41
67738;BME280;54534;43.612;1.572;2023-04-22T12:59:10;98642.50;;;19.40;49.43
67738;BME280;54534;43.612;1.572;2023-04-22T13:01:35;98645.16;;;19.40;49.59
67738;BME280;54534;43.612;1.572;2023-04-22T13:04:01;98645.16;;;19.40;49.46
67738;BME280;54534;43.612;1.572;2023-04-22T13:06:26;98648.84;;;19.39;49.73